sensor_id;sensor_type;location;lat;lon;timestamp;P1;durP1;ratioP1;P2;durP2;ratioP2
9306;SDS011;4691;47.612;7.610;2023-07-20T00:02:23;6.57;;;3.33;;
9306;SDS011;4691;47.612;7.610;2023-07-20T00:04:48;7.32;;;3.03;;
9306;SDS011;4691;47.612;7.610;2023-07-20T00:07:14;8.32;;;2.97;;
9306;SDS011;4691;47.612;7.610;2023-07-20T00:09:39;10.45;;;3.72;;
9306;SDS011;4691;47.612;7.610;2023-07-20T00:12:05;10.05;;;3.72;;
9306;SDS011;4691;47.612;7.610;2023-07-20T00:14:30;5.50;;;3.20;;
9306;SDS011;4691;47.612;7.610;2023-07-20T00:16:57;6.13;;;3.20;;
9306;SDS011;4691;47.612;7.610;2023-07-20T00:19:25;10.75;;;3.17;;
9306;SDS011;4691;47.612;7.610;2023-07-20T00:21:52;7.00;;;3.42;;
9306;SDS011;4691;47.612;7.610;2023-07-20T00:24:18;9.93;;;3.20;;
9306;SDS011;4691;47.612;7.610;2023-07-20T00:26:43;6.07;;;3.33;;
9306;SDS011;4691;47.612;7.610;2023-07-20T00:29:09;5.72;;;2.97;;
9306;SDS011;4691;47.612;7.610;2023-07-20T00:31:35;7.70;;;3.30;;
9306;SDS011;4691;47.612;7.610;2023-07-20T00:34:02;6.18;;;2.97;;
9306;SDS011;4691;47.612;7.610;2023-07-20T00:36:30;7.10;;;2.90;;
9306;SDS011;4691;47.612;7.610;2023-07-20T00:38:55;7.80;;;2.83;;
9306;SDS011;4691;47.612;7.610;2023-07-20T00:41:21;5.50;;;2.90;;
9306;SDS011;4691;47.612;7.610;2023-07-20T00:43:46;9.68;;;3.00;;
9306;SDS011;4691;47.612;7.610;2023-07-20T00:46:12;11.10;;;4.90;;
9306;SDS011;4691;47.612;7.610;2023-07-20T00:48:38;8.05;;;3.45;;
9306;SDS011;4691;47.612;7.610;2023-07-20T00:51:05;9.43;;;3.20;;
9306;SDS011;4691;47.612;7.610;2023-07-20T00:53:30;7.82;;;3.40;;
9306;SDS011;4691;47.612;7.610;2023-07-20T00:55:56;8.07;;;3.58;;
9306;SDS011;4691;47.612;7.610;2023-07-20T00:58:21;9.38;;;2.95;;
9306;SDS011;4691;47.612;7.610;2023-07-20T01:00:47;5.53;;;3.30;;
9306;SDS011;4691;47.612;7.610;2023-07-20T01:03:12;8.65;;;3.25;;
9306;SDS011;4691;47.612;7.610;2023-07-20T01:05:48;8.93;;;3.42;;
9306;SDS011;4691;47.612;7.610;2023-07-20T01:09:04;8.48;;;3.75;;
9306;SDS011;4691;47.612;7.610;2023-07-20T01:11:59;9.05;;;3.22;;
9306;SDS011;4691;47.612;7.610;2023-07-20T01:14:08;7.07;;;3.15;;
9306;SDS011;4691;47.612;7.610;2023-07-20T01:16:35;8.65;;;3.55;;
9306;SDS011;4691;47.612;7.610;2023-07-20T01:19:00;8.40;;;3.05;;
9306;SDS011;4691;47.612;7.610;2023-07-20T01:21:28;7.57;;;3.30;;
9306;SDS011;4691;47.612;7.610;2023-07-20T01:32:22;6.93;;;3.30;;
9306;SDS011;4691;47.612;7.610;2023-07-20T01:34:50;5.60;;;3.30;;
9306;SDS011;4691;47.612;7.610;2023-07-20T01:37:18;9.48;;;3.35;;
9306;SDS011;4691;47.612;7.610;2023-07-20T01:39:45;10.63;;;3.33;;
9306;SDS011;4691;47.612;7.610;2023-07-20T01:42:11;9.18;;;3.17;;
9306;SDS011;4691;47.612;7.610;2023-07-20T01:44:37;5.50;;;3.13;;
9306;SDS011;4691;47.612;7.610;2023-07-20T01:47:03;7.90;;;3.35;;
9306;SDS011;4691;47.612;7.610;2023-07-20T01:49:29;6.03;;;3.10;;
9306;SDS011;4691;47.612;7.610;2023-07-20T01:51:54;7.10;;;3.17;;
9306;SDS011;4691;47.612;7.610;2023-07-20T01:54:19;7.90;;;3.00;;
9306;SDS011;4691;47.612;7.610;2023-07-20T01:56:46;8.50;;;3.20;;
9306;SDS011;4691;47.612;7.610;2023-07-20T01:59:11;5.65;;;3.45;;
9306;SDS011;4691;47.612;7.610;2023-07-20T02:01:37;6.60;;;3.20;;
9306;SDS011;4691;47.612;7.610;2023-07-20T02:04:02;6.28;;;3.25;;
9306;SDS011;4691;47.612;7.610;2023-07-20T02:06:27;6.50;;;3.42;;
9306;SDS011;4691;47.612;7.610;2023-07-20T02:08:52;6.20;;;3.25;;
9306;SDS011;4691;47.612;7.610;2023-07-20T02:11:18;8.88;;;3.75;;
9306;SDS011;4691;47.612;7.610;2023-07-20T02:13:43;7.97;;;3.45;;
9306;SDS011;4691;47.612;7.610;2023-07-20T02:19:31;6.13;;;3.28;;
9306;SDS011;4691;47.612;7.610;2023-07-20T02:21:57;5.03;;;3.60;;
9306;SDS011;4691;47.612;7.610;2023-07-20T02:24:23;9.32;;;3.60;;
9306;SDS011;4691;47.612;7.610;2023-07-20T02:26:48;6.18;;;3.65;;
9306;SDS011;4691;47.612;7.610;2023-07-20T02:29:13;10.20;;;3.65;;
9306;SDS011;4691;47.612;7.610;2023-07-20T02:31:39;6.20;;;3.58;;
9306;SDS011;4691;47.612;7.610;2023-07-20T02:34:04;6.45;;;3.78;;
9306;SDS011;4691;47.612;7.610;2023-07-20T02:36:30;12.00;;;4.15;;
9306;SDS011;4691;47.612;7.610;2023-07-20T02:38:57;8.43;;;3.88;;
9306;SDS011;4691;47.612;7.610;2023-07-20T02:41:23;13.52;;;3.72;;
9306;SDS011;4691;47.612;7.610;2023-07-20T02:43:48;13.65;;;4.05;;
9306;SDS011;4691;47.612;7.610;2023-07-20T02:46:13;8.35;;;3.78;;
9306;SDS011;4691;47.612;7.610;2023-07-20T02:48:39;12.40;;;4.18;;
9306;SDS011;4691;47.612;7.610;2023-07-20T02:51:04;6.65;;;3.78;;
9306;SDS011;4691;47.612;7.610;2023-07-20T02:53:29;8.05;;;3.70;;
9306;SDS011;4691;47.612;7.610;2023-07-20T02:55:54;7.65;;;3.70;;
9306;SDS011;4691;47.612;7.610;2023-07-20T02:58:20;8.90;;;3.50;;
9306;SDS011;4691;47.612;7.610;2023-07-20T03:00:45;9.98;;;3.80;;
9306;SDS011;4691;47.612;7.610;2023-07-20T03:03:10;9.95;;;3.72;;
9306;SDS011;4691;47.612;7.610;2023-07-20T03:05:36;8.40;;;3.95;;
9306;SDS011;4691;47.612;7.610;2023-07-20T03:08:04;8.00;;;3.92;;
9306;SDS011;4691;47.612;7.610;2023-07-20T03:10:31;6.82;;;3.90;;
9306;SDS011;4691;47.612;7.610;2023-07-20T03:12:56;7.60;;;4.18;;
9306;SDS011;4691;47.612;7.610;2023-07-20T03:15:21;8.27;;;3.88;;
9306;SDS011;4691;47.612;7.610;2023-07-20T03:17:47;8.88;;;4.40;;
9306;SDS011;4691;47.612;7.610;2023-07-20T03:20:12;8.50;;;4.13;;
9306;SDS011;4691;47.612;7.610;2023-07-20T03:22:37;6.60;;;3.70;;
9306;SDS011;4691;47.612;7.610;2023-07-20T03:25:03;6.38;;;3.60;;
9306;SDS011;4691;47.612;7.610;2023-07-20T03:27:29;8.52;;;3.97;;
9306;SDS011;4691;47.612;7.610;2023-07-20T03:29:54;7.45;;;4.10;;
9306;SDS011;4691;47.612;7.610;2023-07-20T03:32:20;11.18;;;3.75;;
9306;SDS011;4691;47.612;7.610;2023-07-20T03:34:45;7.43;;;3.90;;
9306;SDS011;4691;47.612;7.610;2023-07-20T03:37:10;11.60;;;3.85;;
9306;SDS011;4691;47.612;7.610;2023-07-20T03:39:36;9.60;;;3.80;;
9306;SDS011;4691;47.612;7.610;2023-07-20T03:42:01;8.93;;;4.38;;
9306;SDS011;4691;47.612;7.610;2023-07-20T03:44:26;9.52;;;4.18;;
9306;SDS011;4691;47.612;7.610;2023-07-20T03:46:52;10.68;;;3.80;;
9306;SDS011;4691;47.612;7.610;2023-07-20T03:49:17;10.13;;;4.03;;
9306;SDS011;4691;47.612;7.610;2023-07-20T03:51:43;9.52;;;4.05;;
9306;SDS011;4691;47.612;7.610;2023-07-20T03:54:08;9.88;;;3.80;;
9306;SDS011;4691;47.612;7.610;2023-07-20T03:56:33;6.28;;;3.42;;
9306;SDS011;4691;47.612;7.610;2023-07-20T03:59:00;10.73;;;3.67;;
9306;SDS011;4691;47.612;7.610;2023-07-20T04:01:25;8.00;;;4.35;;
9306;SDS011;4691;47.612;7.610;2023-07-20T04:03:50;15.60;;;3.63;;
9306;SDS011;4691;47.612;7.610;2023-07-20T04:06:16;8.38;;;3.60;;
9306;SDS011;4691;47.612;7.610;2023-07-20T04:08:42;15.73;;;3.83;;
9306;SDS011;4691;47.612;7.610;2023-07-20T04:11:08;12.25;;;4.05;;
9306;SDS011;4691;47.612;7.610;2023-07-20T04:13:33;6.85;;;4.13;;
9306;SDS011;4691;47.612;7.610;2023-07-20T04:15:59;7.38;;;4.03;;
9306;SDS011;4691;47.612;7.610;2023-07-20T04:18:25;8.23;;;4.10;;
9306;SDS011;4691;47.612;7.610;2023-07-20T04:20:50;9.85;;;4.15;;
9306;SDS011;4691;47.612;7.610;2023-07-20T04:23:15;11.25;;;4.45;;
9306;SDS011;4691;47.612;7.610;2023-07-20T04:25:41;9.05;;;4.15;;
9306;SDS011;4691;47.612;7.610;2023-07-20T04:28:07;9.48;;;4.30;;
9306;SDS011;4691;47.612;7.610;2023-07-20T04:30:33;10.75;;;4.70;;
9306;SDS011;4691;47.612;7.610;2023-07-20T04:33:03;9.23;;;4.13;;
9306;SDS011;4691;47.612;7.610;2023-07-20T04:38:13;11.57;;;4.15;;
9306;SDS011;4691;47.612;7.610;2023-07-20T04:40:41;9.43;;;3.80;;
9306;SDS011;4691;47.612;7.610;2023-07-20T04:43:07;8.30;;;4.28;;
9306;SDS011;4691;47.612;7.610;2023-07-20T04:45:32;10.90;;;3.70;;
9306;SDS011;4691;47.612;7.610;2023-07-20T04:47:58;10.27;;;3.90;;
9306;SDS011;4691;47.612;7.610;2023-07-20T04:50:23;10.00;;;4.20;;
9306;SDS011;4691;47.612;7.610;2023-07-20T04:52:50;12.27;;;4.57;;
9306;SDS011;4691;47.612;7.610;2023-07-20T04:55:15;11.25;;;4.05;;
9306;SDS011;4691;47.612;7.610;2023-07-20T04:57:41;10.68;;;4.30;;
9306;SDS011;4691;47.612;7.610;2023-07-20T05:00:06;9.02;;;4.05;;
9306;SDS011;4691;47.612;7.610;2023-07-20T05:02:32;10.50;;;4.32;;
9306;SDS011;4691;47.612;7.610;2023-07-20T05:04:57;13.57;;;4.13;;
9306;SDS011;4691;47.612;7.610;2023-07-20T05:07:22;9.45;;;3.95;;
9306;SDS011;4691;47.612;7.610;2023-07-20T05:09:48;13.05;;;4.20;;
9306;SDS011;4691;47.612;7.610;2023-07-20T05:12:13;10.07;;;4.40;;
9306;SDS011;4691;47.612;7.610;2023-07-20T05:14:38;9.48;;;4.15;;
9306;SDS011;4691;47.612;7.610;2023-07-20T05:17:04;8.15;;;4.00;;
9306;SDS011;4691;47.612;7.610;2023-07-20T05:19:29;7.72;;;4.13;;
9306;SDS011;4691;47.612;7.610;2023-07-20T05:21:55;11.35;;;4.68;;
9306;SDS011;4691;47.612;7.610;2023-07-20T05:24:20;6.30;;;3.60;;
9306;SDS011;4691;47.612;7.610;2023-07-20T05:26:46;7.93;;;3.65;;
9306;SDS011;4691;47.612;7.610;2023-07-20T05:29:11;7.63;;;3.78;;
9306;SDS011;4691;47.612;7.610;2023-07-20T05:31:36;8.68;;;3.78;;
9306;SDS011;4691;47.612;7.610;2023-07-20T05:34:01;6.95;;;4.10;;
9306;SDS011;4691;47.612;7.610;2023-07-20T05:36:27;12.52;;;3.90;;
9306;SDS011;4691;47.612;7.610;2023-07-20T05:38:52;9.15;;;4.10;;
9306;SDS011;4691;47.612;7.610;2023-07-20T05:41:18;12.00;;;4.53;;
9306;SDS011;4691;47.612;7.610;2023-07-20T05:43:43;12.02;;;4.32;;
9306;SDS011;4691;47.612;7.610;2023-07-20T05:46:08;8.55;;;4.57;;
9306;SDS011;4691;47.612;7.610;2023-07-20T05:48:34;11.40;;;4.10;;
9306;SDS011;4691;47.612;7.610;2023-07-20T05:51:00;13.30;;;4.68;;
9306;SDS011;4691;47.612;7.610;2023-07-20T05:53:25;13.88;;;4.63;;
9306;SDS011;4691;47.612;7.610;2023-07-20T05:55:54;11.30;;;4.70;;
9306;SDS011;4691;47.612;7.610;2023-07-20T05:58:20;8.40;;;4.40;;
9306;SDS011;4691;47.612;7.610;2023-07-20T06:00:48;20.83;;;5.68;;
9306;SDS011;4691;47.612;7.610;2023-07-20T06:03:14;6.78;;;4.40;;
9306;SDS011;4691;47.612;7.610;2023-07-20T06:05:41;13.43;;;5.07;;
9306;SDS011;4691;47.612;7.610;2023-07-20T06:08:07;16.95;;;5.63;;
9306;SDS011;4691;47.612;7.610;2023-07-20T06:10:32;18.38;;;5.32;;
9306;SDS011;4691;47.612;7.610;2023-07-20T06:12:57;15.00;;;5.30;;
9306;SDS011;4691;47.612;7.610;2023-07-20T06:15:26;14.88;;;5.43;;
9306;SDS011;4691;47.612;7.610;2023-07-20T06:18:00;12.40;;;5.10;;
9306;SDS011;4691;47.612;7.610;2023-07-20T06:20:25;18.05;;;5.20;;
9306;SDS011;4691;47.612;7.610;2023-07-20T06:22:51;10.95;;;5.22;;
9306;SDS011;4691;47.612;7.610;2023-07-20T06:25:16;11.45;;;5.07;;
9306;SDS011;4691;47.612;7.610;2023-07-20T06:27:42;7.75;;;4.60;;
9306;SDS011;4691;47.612;7.610;2023-07-20T06:30:08;9.88;;;4.85;;
9306;SDS011;4691;47.612;7.610;2023-07-20T06:32:34;13.55;;;5.13;;
9306;SDS011;4691;47.612;7.610;2023-07-20T06:34:59;9.50;;;5.10;;
9306;SDS011;4691;47.612;7.610;2023-07-20T06:37:24;13.35;;;5.03;;
9306;SDS011;4691;47.612;7.610;2023-07-20T06:39:50;9.90;;;5.00;;
9306;SDS011;4691;47.612;7.610;2023-07-20T06:42:15;11.18;;;5.40;;
9306;SDS011;4691;47.612;7.610;2023-07-20T06:44:40;13.82;;;6.13;;
9306;SDS011;4691;47.612;7.610;2023-07-20T06:47:06;13.57;;;5.32;;
9306;SDS011;4691;47.612;7.610;2023-07-20T06:49:31;21.75;;;5.22;;
9306;SDS011;4691;47.612;7.610;2023-07-20T06:51:56;14.70;;;5.45;;
9306;SDS011;4691;47.612;7.610;2023-07-20T06:54:22;14.50;;;5.20;;
9306;SDS011;4691;47.612;7.610;2023-07-20T06:56:47;16.85;;;6.20;;
9306;SDS011;4691;47.612;7.610;2023-07-20T06:59:13;14.52;;;5.15;;
9306;SDS011;4691;47.612;7.610;2023-07-20T07:01:38;16.05;;;6.20;;
9306;SDS011;4691;47.612;7.610;2023-07-20T07:04:04;17.38;;;5.60;;
9306;SDS011;4691;47.612;7.610;2023-07-20T07:06:30;11.88;;;5.15;;
9306;SDS011;4691;47.612;7.610;2023-07-20T07:08:56;14.98;;;5.70;;
9306;SDS011;4691;47.612;7.610;2023-07-20T07:11:21;14.27;;;5.55;;
9306;SDS011;4691;47.612;7.610;2023-07-20T07:13:47;16.45;;;6.05;;
9306;SDS011;4691;47.612;7.610;2023-07-20T07:16:14;16.85;;;5.90;;
9306;SDS011;4691;47.612;7.610;2023-07-20T07:18:43;14.52;;;5.60;;
9306;SDS011;4691;47.612;7.610;2023-07-20T07:21:09;15.20;;;5.25;;
9306;SDS011;4691;47.612;7.610;2023-07-20T07:27:08;9.82;;;4.90;;
9306;SDS011;4691;47.612;7.610;2023-07-20T07:29:33;13.77;;;5.95;;
9306;SDS011;4691;47.612;7.610;2023-07-20T07:31:59;14.23;;;6.13;;
9306;SDS011;4691;47.612;7.610;2023-07-20T07:34:24;16.88;;;5.40;;
9306;SDS011;4691;47.612;7.610;2023-07-20T07:36:50;16.63;;;5.97;;
9306;SDS011;4691;47.612;7.610;2023-07-20T07:39:15;15.32;;;5.90;;
9306;SDS011;4691;47.612;7.610;2023-07-20T07:41:41;15.50;;;5.47;;
9306;SDS011;4691;47.612;7.610;2023-07-20T07:44:06;21.25;;;6.00;;
9306;SDS011;4691;47.612;7.610;2023-07-20T07:46:31;13.80;;;5.78;;
9306;SDS011;4691;47.612;7.610;2023-07-20T07:48:56;12.13;;;5.38;;
9306;SDS011;4691;47.612;7.610;2023-07-20T07:51:22;13.07;;;5.45;;
9306;SDS011;4691;47.612;7.610;2023-07-20T07:53:47;11.35;;;4.90;;
9306;SDS011;4691;47.612;7.610;2023-07-20T07:56:14;17.23;;;5.32;;
9306;SDS011;4691;47.612;7.610;2023-07-20T07:58:39;9.07;;;5.22;;
9306;SDS011;4691;47.612;7.610;2023-07-20T08:01:05;30.30;;;5.25;;
9306;SDS011;4691;47.612;7.610;2023-07-20T08:03:30;25.83;;;5.55;;
9306;SDS011;4691;47.612;7.610;2023-07-20T08:05:56;9.02;;;5.00;;
9306;SDS011;4691;47.612;7.610;2023-07-20T08:08:21;11.27;;;4.85;;
9306;SDS011;4691;47.612;7.610;2023-07-20T08:10:47;8.73;;;4.40;;
9306;SDS011;4691;47.612;7.610;2023-07-20T08:13:12;16.40;;;4.78;;
9306;SDS011;4691;47.612;7.610;2023-07-20T08:15:38;13.07;;;4.93;;
9306;SDS011;4691;47.612;7.610;2023-07-20T08:18:04;9.75;;;4.90;;
9306;SDS011;4691;47.612;7.610;2023-07-20T08:20:29;7.60;;;4.90;;
9306;SDS011;4691;47.612;7.610;2023-07-20T08:22:54;12.85;;;5.38;;
9306;SDS011;4691;47.612;7.610;2023-07-20T08:25:21;8.98;;;5.07;;
9306;SDS011;4691;47.612;7.610;2023-07-20T08:27:46;13.75;;;5.25;;
9306;SDS011;4691;47.612;7.610;2023-07-20T08:30:12;10.82;;;5.15;;
9306;SDS011;4691;47.612;7.610;2023-07-20T08:32:38;10.18;;;4.57;;
9306;SDS011;4691;47.612;7.610;2023-07-20T08:35:03;15.45;;;5.18;;
9306;SDS011;4691;47.612;7.610;2023-07-20T08:37:29;12.30;;;4.80;;
9306;SDS011;4691;47.612;7.610;2023-07-20T08:39:54;21.60;;;5.72;;
9306;SDS011;4691;47.612;7.610;2023-07-20T08:42:19;12.80;;;4.80;;
9306;SDS011;4691;47.612;7.610;2023-07-20T08:44:47;20.85;;;5.53;;
9306;SDS011;4691;47.612;7.610;2023-07-20T08:47:14;9.57;;;5.13;;
9306;SDS011;4691;47.612;7.610;2023-07-20T08:49:41;14.60;;;5.53;;
9306;SDS011;4691;47.612;7.610;2023-07-20T08:52:07;14.43;;;5.55;;
9306;SDS011;4691;47.612;7.610;2023-07-20T08:54:33;13.38;;;5.43;;
9306;SDS011;4691;47.612;7.610;2023-07-20T08:57:01;10.75;;;4.70;;
9306;SDS011;4691;47.612;7.610;2023-07-20T08:59:28;19.52;;;5.65;;
9306;SDS011;4691;47.612;7.610;2023-07-20T09:01:55;8.73;;;4.72;;
9306;SDS011;4691;47.612;7.610;2023-07-20T09:04:21;14.85;;;5.03;;
9306;SDS011;4691;47.612;7.610;2023-07-20T09:06:48;12.10;;;4.97;;
9306;SDS011;4691;47.612;7.610;2023-07-20T09:09:14;14.40;;;5.63;;
9306;SDS011;4691;47.612;7.610;2023-07-20T09:11:40;12.95;;;5.10;;
9306;SDS011;4691;47.612;7.610;2023-07-20T09:14:05;10.73;;;5.22;;
9306;SDS011;4691;47.612;7.610;2023-07-20T09:16:32;10.75;;;4.57;;
9306;SDS011;4691;47.612;7.610;2023-07-20T09:18:57;9.57;;;4.72;;
9306;SDS011;4691;47.612;7.610;2023-07-20T09:21:23;11.35;;;4.57;;
9306;SDS011;4691;47.612;7.610;2023-07-20T09:23:54;9.77;;;4.40;;
9306;SDS011;4691;47.612;7.610;2023-07-20T09:26:21;10.02;;;4.18;;
9306;SDS011;4691;47.612;7.610;2023-07-20T09:28:48;9.20;;;4.32;;
9306;SDS011;4691;47.612;7.610;2023-07-20T09:31:19;9.95;;;4.13;;
9306;SDS011;4691;47.612;7.610;2023-07-20T09:33:46;9.55;;;4.45;;
9306;SDS011;4691;47.612;7.610;2023-07-20T09:36:12;11.02;;;4.72;;
9306;SDS011;4691;47.612;7.610;2023-07-20T09:38:38;18.15;;;5.55;;
9306;SDS011;4691;47.612;7.610;2023-07-20T09:41:06;14.48;;;6.60;;
9306;SDS011;4691;47.612;7.610;2023-07-20T09:43:32;11.63;;;4.15;;
9306;SDS011;4691;47.612;7.610;2023-07-20T09:45:59;10.80;;;4.40;;
9306;SDS011;4691;47.612;7.610;2023-07-20T09:48:25;9.50;;;4.32;;
9306;SDS011;4691;47.612;7.610;2023-07-20T09:50:51;10.48;;;4.22;;
9306;SDS011;4691;47.612;7.610;2023-07-20T09:53:18;13.23;;;4.43;;
9306;SDS011;4691;47.612;7.610;2023-07-20T09:55:44;9.82;;;4.20;;
9306;SDS011;4691;47.612;7.610;2023-07-20T09:58:11;13.38;;;4.57;;
9306;SDS011;4691;47.612;7.610;2023-07-20T10:00:37;11.15;;;5.07;;
9306;SDS011;4691;47.612;7.610;2023-07-20T10:03:04;13.07;;;4.20;;
9306;SDS011;4691;47.612;7.610;2023-07-20T10:05:33;12.05;;;4.20;;
9306;SDS011;4691;47.612;7.610;2023-07-20T10:08:01;8.38;;;4.13;;
9306;SDS011;4691;47.612;7.610;2023-07-20T10:10:27;10.32;;;4.28;;
9306;SDS011;4691;47.612;7.610;2023-07-20T10:12:53;13.63;;;4.85;;
9306;SDS011;4691;47.612;7.610;2023-07-20T10:15:23;12.23;;;5.15;;
9306;SDS011;4691;47.612;7.610;2023-07-20T10:18:34;8.10;;;4.38;;
9306;SDS011;4691;47.612;7.610;2023-07-20T10:23:19;8.35;;;4.50;;
9306;SDS011;4691;47.612;7.610;2023-07-20T10:25:44;13.50;;;4.75;;
9306;SDS011;4691;47.612;7.610;2023-07-20T10:28:11;7.80;;;3.90;;
9306;SDS011;4691;47.612;7.610;2023-07-20T10:30:38;12.00;;;4.47;;
9306;SDS011;4691;47.612;7.610;2023-07-20T10:33:04;9.70;;;4.57;;
9306;SDS011;4691;47.612;7.610;2023-07-20T10:35:31;7.65;;;4.47;;
9306;SDS011;4691;47.612;7.610;2023-07-20T10:38:15;8.45;;;4.38;;
9306;SDS011;4691;47.612;7.610;2023-07-20T10:40:40;12.23;;;4.30;;
9306;SDS011;4691;47.612;7.610;2023-07-20T10:43:06;10.68;;;4.30;;
9306;SDS011;4691;47.612;7.610;2023-07-20T10:48:13;9.07;;;3.70;;
9306;SDS011;4691;47.612;7.610;2023-07-20T10:50:41;12.85;;;4.55;;
9306;SDS011;4691;47.612;7.610;2023-07-20T10:53:10;8.35;;;3.83;;
9306;SDS011;4691;47.612;7.610;2023-07-20T10:55:37;9.73;;;4.10;;
9306;SDS011;4691;47.612;7.610;2023-07-20T10:58:07;11.82;;;4.00;;
9306;SDS011;4691;47.612;7.610;2023-07-20T11:00:33;8.98;;;3.40;;
9306;SDS011;4691;47.612;7.610;2023-07-20T11:02:59;8.38;;;3.63;;
9306;SDS011;4691;47.612;7.610;2023-07-20T11:05:34;15.90;;;3.90;;
9306;SDS011;4691;47.612;7.610;2023-07-20T11:08:04;10.10;;;3.63;;
9306;SDS011;4691;47.612;7.610;2023-07-20T11:10:31;10.15;;;3.85;;
9306;SDS011;4691;47.612;7.610;2023-07-20T11:13:15;10.93;;;4.15;;
9306;SDS011;4691;47.612;7.610;2023-07-20T11:16:01;6.88;;;3.40;;
9306;SDS011;4691;47.612;7.610;2023-07-20T11:18:29;10.65;;;3.72;;
9306;SDS011;4691;47.612;7.610;2023-07-20T11:20:56;11.00;;;4.10;;
9306;SDS011;4691;47.612;7.610;2023-07-20T11:23:21;8.60;;;3.42;;
9306;SDS011;4691;47.612;7.610;2023-07-20T11:25:47;8.40;;;3.55;;
9306;SDS011;4691;47.612;7.610;2023-07-20T11:28:12;11.52;;;3.72;;
9306;SDS011;4691;47.612;7.610;2023-07-20T11:30:38;9.45;;;3.70;;
9306;SDS011;4691;47.612;7.610;2023-07-20T11:33:04;6.63;;;3.38;;
9306;SDS011;4691;47.612;7.610;2023-07-20T11:35:44;9.70;;;3.55;;
9306;SDS011;4691;47.612;7.610;2023-07-20T11:38:13;5.85;;;3.10;;
9306;SDS011;4691;47.612;7.610;2023-07-20T11:40:44;6.20;;;3.05;;
9306;SDS011;4691;47.612;7.610;2023-07-20T11:43:11;7.53;;;3.22;;
9306;SDS011;4691;47.612;7.610;2023-07-20T11:45:37;5.85;;;3.00;;
9306;SDS011;4691;47.612;7.610;2023-07-20T11:48:03;6.97;;;3.28;;
9306;SDS011;4691;47.612;7.610;2023-07-20T11:50:29;7.45;;;3.40;;
9306;SDS011;4691;47.612;7.610;2023-07-20T11:52:54;7.43;;;3.80;;
9306;SDS011;4691;47.612;7.610;2023-07-20T11:55:21;4.15;;;2.95;;
9306;SDS011;4691;47.612;7.610;2023-07-20T11:58:05;8.65;;;2.97;;
9306;SDS011;4691;47.612;7.610;2023-07-20T12:00:35;8.35;;;3.30;;
9306;SDS011;4691;47.612;7.610;2023-07-20T12:03:04;9.60;;;3.28;;
9306;SDS011;4691;47.612;7.610;2023-07-20T12:05:31;6.03;;;3.20;;
9306;SDS011;4691;47.612;7.610;2023-07-20T12:07:57;5.43;;;3.17;;
9306;SDS011;4691;47.612;7.610;2023-07-20T12:10:26;5.50;;;3.00;;
9306;SDS011;4691;47.612;7.610;2023-07-20T12:12:53;7.50;;;3.42;;
9306;SDS011;4691;47.612;7.610;2023-07-20T12:15:25;8.60;;;3.10;;
9306;SDS011;4691;47.612;7.610;2023-07-20T12:17:56;6.25;;;2.90;;
9306;SDS011;4691;47.612;7.610;2023-07-20T12:22:56;7.90;;;3.47;;
9306;SDS011;4691;47.612;7.610;2023-07-20T12:25:32;8.60;;;3.22;;
9306;SDS011;4691;47.612;7.610;2023-07-20T12:28:14;5.88;;;2.83;;
9306;SDS011;4691;47.612;7.610;2023-07-20T12:30:43;5.68;;;3.00;;
9306;SDS011;4691;47.612;7.610;2023-07-20T12:33:09;9.07;;;3.10;;
9306;SDS011;4691;47.612;7.610;2023-07-20T12:35:34;10.20;;;3.42;;
9306;SDS011;4691;47.612;7.610;2023-07-20T12:38:00;10.50;;;3.30;;
9306;SDS011;4691;47.612;7.610;2023-07-20T12:40:25;9.55;;;3.10;;
9306;SDS011;4691;47.612;7.610;2023-07-20T12:42:51;7.03;;;2.97;;
9306;SDS011;4691;47.612;7.610;2023-07-20T12:45:16;8.48;;;3.30;;
9306;SDS011;4691;47.612;7.610;2023-07-20T12:47:41;10.65;;;3.20;;
9306;SDS011;4691;47.612;7.610;2023-07-20T12:50:09;7.28;;;3.10;;
9306;SDS011;4691;47.612;7.610;2023-07-20T12:52:39;8.02;;;3.10;;
9306;SDS011;4691;47.612;7.610;2023-07-20T12:55:05;9.20;;;3.05;;
9306;SDS011;4691;47.612;7.610;2023-07-20T12:57:36;4.63;;;2.58;;
9306;SDS011;4691;47.612;7.610;2023-07-20T13:00:02;6.00;;;3.00;;
9306;SDS011;4691;47.612;7.610;2023-07-20T13:02:30;12.07;;;3.07;;
9306;SDS011;4691;47.612;7.610;2023-07-20T13:04:56;5.97;;;2.90;;
9306;SDS011;4691;47.612;7.610;2023-07-20T13:07:29;7.65;;;3.40;;
9306;SDS011;4691;47.612;7.610;2023-07-20T13:09:56;5.53;;;2.92;;
9306;SDS011;4691;47.612;7.610;2023-07-20T13:12:21;5.28;;;2.40;;
9306;SDS011;4691;47.612;7.610;2023-07-20T13:14:46;7.55;;;2.95;;
9306;SDS011;4691;47.612;7.610;2023-07-20T13:17:12;9.02;;;3.33;;
9306;SDS011;4691;47.612;7.610;2023-07-20T13:19:37;8.77;;;2.90;;
9306;SDS011;4691;47.612;7.610;2023-07-20T13:22:02;6.32;;;2.72;;
9306;SDS011;4691;47.612;7.610;2023-07-20T13:24:28;6.55;;;2.97;;
9306;SDS011;4691;47.612;7.610;2023-07-20T13:26:53;4.72;;;2.83;;
9306;SDS011;4691;47.612;7.610;2023-07-20T13:29:19;5.75;;;2.47;;
9306;SDS011;4691;47.612;7.610;2023-07-20T13:31:44;7.85;;;2.67;;
9306;SDS011;4691;47.612;7.610;2023-07-20T13:34:09;6.43;;;2.73;;
9306;SDS011;4691;47.612;7.610;2023-07-20T13:36:34;11.83;;;2.90;;
9306;SDS011;4691;47.612;7.610;2023-07-20T13:39:00;7.97;;;2.88;;
9306;SDS011;4691;47.612;7.610;2023-07-20T13:41:25;5.30;;;2.70;;
9306;SDS011;4691;47.612;7.610;2023-07-20T13:43:50;5.97;;;2.50;;
9306;SDS011;4691;47.612;7.610;2023-07-20T13:46:16;6.65;;;2.65;;
9306;SDS011;4691;47.612;7.610;2023-07-20T13:48:41;4.20;;;2.90;;
9306;SDS011;4691;47.612;7.610;2023-07-20T13:51:06;5.10;;;2.27;;
9306;SDS011;4691;47.612;7.610;2023-07-20T13:53:32;6.35;;;2.60;;
9306;SDS011;4691;47.612;7.610;2023-07-20T13:55:57;5.72;;;2.60;;
9306;SDS011;4691;47.612;7.610;2023-07-20T13:58:23;4.47;;;2.30;;
9306;SDS011;4691;47.612;7.610;2023-07-20T14:00:48;6.93;;;2.60;;
9306;SDS011;4691;47.612;7.610;2023-07-20T14:03:13;5.87;;;2.90;;
9306;SDS011;4691;47.612;7.610;2023-07-20T14:05:39;6.87;;;2.67;;
9306;SDS011;4691;47.612;7.610;2023-07-20T14:08:04;6.15;;;2.67;;
9306;SDS011;4691;47.612;7.610;2023-07-20T14:10:30;7.60;;;2.70;;
9306;SDS011;4691;47.612;7.610;2023-07-20T14:12:55;8.77;;;3.15;;
9306;SDS011;4691;47.612;7.610;2023-07-20T14:15:21;8.05;;;2.80;;
9306;SDS011;4691;47.612;7.610;2023-07-20T14:17:46;7.28;;;2.58;;
9306;SDS011;4691;47.612;7.610;2023-07-20T14:20:12;4.07;;;2.47;;
9306;SDS011;4691;47.612;7.610;2023-07-20T14:22:37;6.28;;;2.50;;
9306;SDS011;4691;47.612;7.610;2023-07-20T14:25:02;5.60;;;2.70;;
9306;SDS011;4691;47.612;7.610;2023-07-20T14:27:28;8.30;;;2.92;;
9306;SDS011;4691;47.612;7.610;2023-07-20T14:29:53;6.00;;;2.60;;
9306;SDS011;4691;47.612;7.610;2023-07-20T14:32:20;7.00;;;2.70;;
9306;SDS011;4691;47.612;7.610;2023-07-20T14:34:45;5.40;;;2.30;;
9306;SDS011;4691;47.612;7.610;2023-07-20T14:37:10;4.03;;;2.33;;
9306;SDS011;4691;47.612;7.610;2023-07-20T14:39:36;5.43;;;2.45;;
9306;SDS011;4691;47.612;7.610;2023-07-20T14:42:02;4.60;;;2.20;;
9306;SDS011;4691;47.612;7.610;2023-07-20T14:44:28;4.30;;;2.55;;
9306;SDS011;4691;47.612;7.610;2023-07-20T14:46:54;3.80;;;2.15;;
9306;SDS011;4691;47.612;7.610;2023-07-20T14:49:20;4.35;;;2.33;;
9306;SDS011;4691;47.612;7.610;2023-07-20T14:51:45;4.30;;;2.15;;
9306;SDS011;4691;47.612;7.610;2023-07-20T14:54:12;4.07;;;2.10;;
9306;SDS011;4691;47.612;7.610;2023-07-20T14:56:38;6.65;;;2.33;;
9306;SDS011;4691;47.612;7.610;2023-07-20T14:59:04;6.63;;;4.45;;
9306;SDS011;4691;47.612;7.610;2023-07-20T15:01:31;6.55;;;2.38;;
9306;SDS011;4691;47.612;7.610;2023-07-20T15:03:56;3.53;;;2.20;;
9306;SDS011;4691;47.612;7.610;2023-07-20T15:06:21;3.57;;;2.40;;
9306;SDS011;4691;47.612;7.610;2023-07-20T15:08:47;4.95;;;2.40;;
9306;SDS011;4691;47.612;7.610;2023-07-20T15:11:12;7.60;;;2.50;;
9306;SDS011;4691;47.612;7.610;2023-07-20T15:13:38;5.05;;;2.20;;
9306;SDS011;4691;47.612;7.610;2023-07-20T15:16:03;4.38;;;2.20;;
9306;SDS011;4691;47.612;7.610;2023-07-20T15:18:28;5.25;;;2.40;;
9306;SDS011;4691;47.612;7.610;2023-07-20T15:20:54;4.45;;;2.30;;
9306;SDS011;4691;47.612;7.610;2023-07-20T15:23:19;4.22;;;2.10;;
9306;SDS011;4691;47.612;7.610;2023-07-20T15:25:45;5.32;;;2.17;;
9306;SDS011;4691;47.612;7.610;2023-07-20T15:28:10;6.07;;;1.98;;
9306;SDS011;4691;47.612;7.610;2023-07-20T15:30:35;4.60;;;2.45;;
9306;SDS011;4691;47.612;7.610;2023-07-20T15:33:01;4.40;;;2.60;;